Time;durP1;ratioP1;P1;durP2;ratioP2;P2;SDS_P1;SDS_P2;PMS_P1;PMS_P2;Temp;Humidity;BMP_temperature;BMP_pressure;BME280_temperature;BME280_humidity;BME280_pressure;Samples;Min_cycle;Max_cycle;Signal;HPM_P1;HPM_P2
2021/03/13 00:00:56;;;;;;;8.97;2.77;;;;;;;5.06;100.00;99305.69;4987234;28;20344;-68
2021/03/13 00:03:22;;;;;;;14.13;2.67;;;;;;;5.16;100.00;99295.34;4989879;28;20426;-68
2021/03/13 00:05:47;;;;;;;11.13;2.23;;;;;;;5.19;100.00;99291.88;4985552;28;20085;-68
2021/03/13 00:08:14;;;;;;;4.30;1.97;;;;;;;5.22;100.00;99268.59;4986052;28;20375;-67
2021/03/13 00:10:41;;;;;;;8.30;2.10;;;;;;;5.41;100.00;99261.66;4989165;28;20026;-68
2021/03/13 00:13:08;;;;;;;4.43;1.70;;;;;;;5.21;100.00;99272.91;4989514;28;20323;-67
2021/03/13 00:15:34;;;;;;;4.37;1.10;;;;;;;5.06;100.00;99293.63;4985770;28;20669;-68
2021/03/13 00:18:01;;;;;;;4.43;1.70;;;;;;;5.06;100.00;99296.19;4986176;28;20273;-68
2021/03/13 00:20:28;;;;;;;7.03;1.50;;;;;;;4.95;100.00;99288.41;4983695;28;20694;-68
2021/03/13 00:22:55;;;;;;;6.13;1.97;;;;;;;4.89;100.00;99287.56;4987612;28;20396;-68
2021/03/13 00:25:22;;;;;;;7.23;2.03;;;;;;;5.05;100.00;99294.47;4988892;28;20265;-68
2021/03/13 00:27:48;;;;;;;5.87;2.10;;;;;;;5.14;100.00;99296.22;4991134;28;20270;-68
2021/03/13 00:30:14;;;;;;;5.43;2.40;;;;;;;5.15;100.00;99301.41;4987673;28;20261;-68
2021/03/13 00:32:40;;;;;;;7.17;2.77;;;;;;;5.21;100.00;99285.00;4989110;28;20266;-69
2021/03/13 00:35:07;;;;;;;9.27;2.53;;;;;;;5.33;100.00;99276.34;4989471;28;20509;-68
2021/03/13 00:37:32;;;;;;;14.17;2.73;;;;;;;5.30;100.00;99280.66;4985855;28;20262;-68
2021/03/13 00:39:58;;;;;;;5.37;1.97;;;;;;;5.24;100.00;99290.19;4989050;28;20622;-68
2021/03/13 00:42:23;;;;;;;6.63;2.90;;;;;;;5.26;100.00;99273.75;4988102;28;20022;-68
2021/03/13 00:44:49;;;;;;;6.57;2.60;;;;;;;5.23;100.00;99276.38;4985376;28;20562;-68
2021/03/13 00:47:14;;;;;;;11.70;2.63;;;;;;;5.18;100.00;99270.31;4988641;28;20022;-68
2021/03/13 00:49:39;;;;;;;12.60;2.03;;;;;;;5.23;100.00;99266.00;4986616;28;20056;-68
2021/03/13 00:52:05;;;;;;;10.27;2.50;;;;;;;5.26;100.00;99272.91;4985109;28;20370;-68
2021/03/13 00:54:31;;;;;;;6.83;2.33;;;;;;;5.12;100.00;99265.13;4987536;28;20459;-68
2021/03/13 00:56:57;;;;;;;8.30;2.37;;;;;;;5.07;100.00;99266.84;4985682;28;20065;-68
2021/03/13 00:59:23;;;;;;;8.10;2.30;;;;;;;5.08;100.00;99278.94;4990284;28;20026;-68
2021/03/13 01:01:48;;;;;;;8.83;2.60;;;;;;;5.14;100.00;99266.00;4988286;28;20313;-68
2021/03/13 01:04:14;;;;;;;7.27;2.70;;;;;;;5.13;100.00;99255.63;4987935;28;20050;-68
2021/03/13 01:06:39;;;;;;;7.33;2.60;;;;;;;5.12;100.00;99264.28;4981433;28;20105;-68
2021/03/13 01:09:05;;;;;;;7.43;2.17;;;;;;;5.02;100.00;99258.22;4986340;28;20026;-68
2021/03/13 01:11:32;;;;;;;5.80;2.33;;;;;;;5.08;100.00;99253.03;4988141;28;20104;-68
2021/03/13 01:13:57;;;;;;;11.57;2.70;;;;;;;4.98;100.00;99252.19;4984433;28;20273;-68
2021/03/13 01:16:22;;;;;;;4.23;1.70;;;;;;;5.04;100.00;99246.13;4980522;28;20037;-68
2021/03/13 01:18:48;;;;;;;9.97;2.37;;;;;;;4.97;100.00;99241.81;4983064;28;20030;-68
2021/03/13 01:21:13;;;;;;;6.37;2.60;;;;;;;4.93;100.00;99232.31;4986817;28;20082;-68
2021/03/13 01:23:39;;;;;;;5.40;1.90;;;;;;;4.87;100.00;99227.13;4989630;28;20475;-68
2021/03/13 01:26:04;;;;;;;9.67;2.53;;;;;;;4.82;100.00;99214.16;4987710;28;20460;-68
2021/03/13 01:28:30;;;;;;;11.77;3.00;;;;;;;4.90;100.00;99221.97;4985886;28;20033;-68
2021/03/13 01:30:55;;;;;;;8.57;2.30;;;;;;;4.91;100.00;99211.59;4983142;28;20076;-68
2021/03/13 01:33:21;;;;;;;7.70;2.10;;;;;;;4.81;100.00;99212.44;4988032;28;20026;-68
2021/03/13 01:35:46;;;;;;;7.23;2.40;;;;;;;4.84;100.00;99211.56;4987487;28;20471;-68
2021/03/13 01:38:12;;;;;;;6.93;2.37;;;;;;;4.88;100.00;99197.78;4985085;28;20030;-68
2021/03/13 01:40:39;;;;;;;6.13;2.13;;;;;;;4.86;100.00;99195.19;4987748;28;20030;-68
2021/03/13 01:43:04;;;;;;;8.13;1.77;;;;;;;4.82;100.00;99195.19;4988024;28;20971;-68
2021/03/13 01:45:30;;;;;;;4.77;1.77;;;;;;;4.80;100.00;99184.84;4984050;28;20742;-68
2021/03/13 01:47:56;;;;;;;8.47;2.30;;;;;;;4.82;100.00;99184.81;4985732;28;20026;-68
2021/03/13 01:50:21;;;;;;;6.67;2.13;;;;;;;4.83;100.00;99178.78;4988665;28;20037;-68
2021/03/13 01:52:49;;;;;;;5.67;1.83;;;;;;;4.73;100.00;99169.31;4985774;28;20054;-68
2021/03/13 01:55:16;;;;;;;9.20;2.53;;;;;;;4.70;100.00;99168.44;4987418;28;20038;-68
2021/03/13 01:57:42;;;;;;;14.70;2.37;;;;;;;4.87;100.00;99180.53;4986861;28;20269;-68
2021/03/13 02:00:19;;;;;;;7.10;2.13;;;;;;;4.79;100.00;99161.53;4982394;28;20285;-68
2021/03/13 02:02:45;;;;;;;4.50;1.90;;;;;;;4.93;100.00;99159.78;4988130;28;20030;-67
2021/03/13 02:05:16;;;;;;;5.77;2.20;;;;;;;4.88;100.00;99152.03;4999838;23;20572;-82
2021/03/13 02:08:05;;;;;;;8.40;2.07;;;;;;;5.01;100.00;99160.66;4992421;28;20036;-82
2021/03/13 02:10:42;;;;;;;5.23;1.60;;;;;;;5.06;100.00;99134.72;4994333;28;20286;-82
2021/03/13 02:13:21;;;;;;;6.10;1.97;;;;;;;5.01;100.00;99134.75;5001075;28;20270;-82
2021/03/13 02:15:46;;;;;;;6.20;2.20;;;;;;;5.02;100.00;99144.25;4997977;28;20396;-82
2021/03/13 02:18:39;;;;;;;3.97;1.57;;;;;;;5.12;100.00;99135.59;4998125;28;20305;-82
2021/03/13 02:21:21;;;;;;;6.83;2.33;;;;;;;5.18;100.00;99130.38;4999141;28;20045;-83
2021/03/13 02:24:12;;;;;;;4.80;1.83;;;;;;;5.19;100.00;99119.16;4995914;28;20360;-82
2021/03/13 02:26:54;;;;;;;6.03;2.00;;;;;;;5.18;100.00;99125.22;4999892;28;20650;-84
2021/03/13 02:29:24;;;;;;;5.78;2.22;;;;;;;5.22;100.00;99110.53;4995936;28;20352;-82
2021/03/13 02:31:55;;;;;;;7.97;2.00;;;;;;;5.29;100.00;99107.91;4999174;28;20034;-83
2021/03/13 02:34:27;;;;;;;9.17;2.87;;;;;;;5.36;100.00;99102.72;5000431;28;20305;-82
2021/03/13 02:36:55;;;;;;;9.57;2.30;;;;;;;5.46;100.00;99089.72;5009494;28;20249;-83
2021/03/13 02:39:25;;;;;;;8.80;2.53;;;;;;;5.50;100.00;99090.56;4996762;28;20034;-82
2021/03/13 02:41:57;;;;;;;7.13;2.50;;;;;;;5.42;100.00;99076.75;5004310;28;20284;-82
2021/03/13 02:44:23;;;;;;;7.45;2.00;;;;;;;5.47;100.00;99082.81;5000021;28;20266;-82
2021/03/13 02:46:50;;;;;;;6.03;2.50;;;;;;;5.53;100.00;99072.41;4999396;28;20041;-83
2021/03/13 02:49:19;;;;;;;6.73;2.30;;;;;;;5.51;100.00;99071.53;4990072;28;20288;-82
2021/03/13 02:51:46;;;;;;;5.67;2.00;;;;;;;5.42;100.00;99066.38;4993745;28;20285;-81
2021/03/13 02:54:12;;;;;;;12.30;2.40;;;;;;;5.39;100.00;99051.72;4991327;28;20310;-82
2021/03/13 02:56:41;;;;;;;5.90;1.83;;;;;;;5.51;100.00;99048.22;4991284;28;20269;-82
2021/03/13 02:59:07;;;;;;;4.63;1.80;;;;;;;5.56;100.00;99054.22;4995378;28;20281;-82
2021/03/13 03:01:33;;;;;;;8.50;1.93;;;;;;;5.47;100.00;99033.56;4990042;28;20277;-82
2021/03/13 03:04:00;;;;;;;9.20;2.03;;;;;;;5.44;100.00;99036.13;4993670;28;20057;-82
2021/03/13 03:06:26;;;;;;;8.47;2.37;;;;;;;5.45;100.00;99030.97;4984863;28;20027;-82
2021/03/13 03:08:53;;;;;;;8.93;2.20;;;;;;;5.39;100.00;99030.13;4985448;28;20289;-83
2021/03/13 03:11:21;;;;;;;8.27;2.07;;;;;;;5.44;100.00;99033.53;4994360;28;20285;-82
2021/03/13 03:13:48;;;;;;;6.37;2.20;;;;;;;5.44;100.00;99012.81;4991675;28;20769;-82
2021/03/13 03:16:14;;;;;;;5.17;1.70;;;;;;;5.46;100.00;99000.72;4988639;28;20776;-83
2021/03/13 03:18:40;;;;;;;10.50;2.70;;;;;;;5.47;100.00;99005.03;4991358;28;20282;-82
2021/03/13 03:21:07;;;;;;;9.10;1.70;;;;;;;5.42;100.00;98988.63;4993245;28;20288;-83
2021/03/13 03:23:36;;;;;;;6.80;2.00;;;;;;;5.49;100.00;98987.75;4989945;28;20098;-82
2021/03/13 03:26:02;;;;;;;4.33;1.33;;;;;;;5.54;100.00;98985.97;4992660;28;20027;-82
2021/03/13 03:28:27;;;;;;;5.23;1.73;;;;;;;5.61;100.00;98985.06;4989126;28;20277;-83
2021/03/13 03:30:54;;;;;;;3.40;1.47;;;;;;;5.59;100.00;98984.22;4992512;28;20054;-83
2021/03/13 03:33:20;;;;;;;6.13;2.10;;;;;;;5.57;100.00;98983.34;4995909;28;20101;-82
2021/03/13 03:35:46;;;;;;;5.60;1.80;;;;;;;5.55;100.00;98974.72;4996908;28;20286;-82
2021/03/13 03:38:12;;;;;;;7.67;1.80;;;;;;;5.65;100.00;98970.34;5000048;28;20066;-83
2021/03/13 03:40:40;;;;;;;5.57;2.10;;;;;;;5.56;100.00;98973.84;4995321;28;20030;-83
2021/03/13 03:43:20;;;;;;;5.87;1.67;;;;;;;5.58;100.00;98959.19;4993226;28;20026;-83
2021/03/13 03:45:51;;;;;;;6.77;1.90;;;;;;;5.56;100.00;98960.91;4997914;28;20630;-83
2021/03/13 03:48:19;;;;;;;8.17;1.77;;;;;;;5.53;100.00;98946.22;4991620;28;20266;-82
2021/03/13 03:50:45;;;;;;;3.57;1.37;;;;;;;5.69;100.00;98941.78;4999163;28;20030;-82
2021/03/13 03:53:29;;;;;;;6.40;1.63;;;;;;;5.77;100.00;98934.81;4992736;28;20033;-82
2021/03/13 03:55:55;;;;;;;7.37;1.70;;;;;;;5.69;100.00;98933.16;4995027;28;20389;-82
2021/03/13 03:58:28;;;;;;;9.30;1.80;;;;;;;5.67;100.00;98938.34;4999464;28;20510;-82
2021/03/13 04:00:55;;;;;;;;;;;;;;;5.68;100.00;98934.88;4992873;28;20258;-82
2021/03/13 04:03:22;;;;;;;8.53;2.03;;;;;;;5.62;100.00;98924.56;4988158;28;19913;-83
2021/03/13 04:05:48;;;;;;;12.43;2.37;;;;;;;5.69;100.00;98915.00;4990019;28;20293;-82
2021/03/13 04:08:17;;;;;;;8.47;2.57;;;;;;;5.75;100.00;98915.81;4993694;28;20281;-82
2021/03/13 04:10:45;;;;;;;6.57;2.57;;;;;;;5.67;100.00;98907.22;4999195;28;20038;-82
2021/03/13 04:13:13;;;;;;;13.17;3.07;;;;;;;5.64;100.00;98904.69;4997129;28;20034;-82
2021/03/13 04:15:42;;;;;;;6.87;2.97;;;;;;;5.60;100.00;98895.22;4987155;28;20840;-82
2021/03/13 04:18:09;;;;;;;12.13;3.73;;;;;;;5.58;100.00;98886.59;4992080;28;20518;-83
2021/03/13 04:20:36;;;;;;;9.40;3.83;;;;;;;5.63;100.00;98878.75;5018399;28;20053;-83
2021/03/13 04:23:03;;;;;;;8.90;3.73;;;;;;;5.63;100.00;98869.25;4990507;28;20286;-83
2021/03/13 04:25:30;;;;;;;12.47;4.43;;;;;;;5.55;100.00;98863.25;4994045;28;20270;-82
2021/03/13 04:27:57;;;;;;;11.87;4.40;;;;;;;5.62;100.00;98862.34;4993661;28;20022;-83
2021/03/13 04:30:22;;;;;;;11.63;4.37;;;;;;;5.54;100.00;98853.75;4995990;28;20273;-83
2021/03/13 04:32:51;;;;;;;11.03;5.03;;;;;;;5.48;100.00;98844.31;4993480;28;20761;-82
2021/03/13 04:35:18;;;;;;;10.00;4.00;;;;;;;5.63;100.00;98843.31;4992189;28;20022;-83
2021/03/13 04:37:44;;;;;;;9.37;4.00;;;;;;;5.50;100.00;98836.53;4997346;28;20745;-82
2021/03/13 04:40:12;;;;;;;11.80;4.50;;;;;;;5.53;100.00;98829.56;4995420;28;20269;-83
2021/03/13 04:42:38;;;;;;;15.73;5.13;;;;;;;5.43;100.00;98817.56;5003499;28;20277;-82
2021/03/13 04:45:08;;;;;;;12.23;4.27;;;;;;;5.48;100.00;98818.41;4998591;28;20283;-82
2021/03/13 04:47:34;;;;;;;12.07;5.23;;;;;;;5.42;100.00;98822.75;4998989;28;20269;-82
2021/03/13 04:50:00;;;;;;;8.50;3.57;;;;;;;5.43;100.00;98814.13;4994873;28;20076;-83
2021/03/13 04:52:25;;;;;;;10.03;4.53;;;;;;;5.39;100.00;98809.84;4997352;28;20277;-83
2021/03/13 04:54:51;;;;;;;12.50;3.97;;;;;;;5.37;100.00;98793.44;4998145;28;20026;-83
2021/03/13 04:57:16;;;;;;;12.30;4.10;;;;;;;5.32;100.00;98783.09;4992594;28;20037;-82
2021/03/13 04:59:42;;;;;;;9.73;4.00;;;;;;;5.33;100.00;98781.38;4988625;28;20023;-82
2021/03/13 05:02:07;;;;;;;9.53;4.20;;;;;;;5.23;100.00;98773.69;4990947;28;20049;-82
2021/03/13 05:04:33;;;;;;;8.60;3.60;;;;;;;5.19;100.00;98759.03;4996743;28;20072;-82
2021/03/13 05:06:58;;;;;;;8.53;3.57;;;;;;;5.20;100.00;98745.19;4995148;28;20489;-81
2021/03/13 05:09:23;;;;;;;7.50;3.30;;;;;;;5.21;100.00;98752.13;4992609;28;20034;-82
2021/03/13 05:11:49;;;;;;;8.27;2.93;;;;;;;5.17;100.00;98745.25;4991373;28;20033;-82
2021/03/13 05:14:14;;;;;;;5.50;2.70;;;;;;;5.19;100.00;98738.31;4990194;28;20070;-82
2021/03/13 05:16:40;;;;;;;6.13;2.77;;;;;;;5.11;100.00;98728.91;4990172;28;20494;-82
2021/03/13 05:19:05;;;;;;;6.80;2.57;;;;;;;5.05;100.00;98719.44;4989955;28;20047;-81
2021/03/13 05:21:31;;;;;;;10.73;3.20;;;;;;;5.08;100.00;98724.59;4993949;28;20037;-81
2021/03/13 05:23:56;;;;;;;8.57;3.00;;;;;;;5.01;100.00;98699.63;4986786;28;20022;-81
2021/03/13 05:26:21;;;;;;;6.60;2.50;;;;;;;5.01;100.00;98697.03;4994988;28;20034;-82
2021/03/13 05:28:47;;;;;;;6.80;2.73;;;;;;;5.02;100.00;98693.56;4989087;28;20491;-82
2021/03/13 05:31:13;;;;;;;9.87;2.73;;;;;;;5.04;100.00;98680.59;4992038;28;20081;-82
2021/03/13 05:33:38;;;;;;;6.13;2.77;;;;;;;4.96;100.00;98670.31;4991148;28;20030;-82
2021/03/13 05:36:04;;;;;;;5.23;2.27;;;;;;;5.02;100.00;98666.81;4989608;28;20037;-82
2021/03/13 05:38:29;;;;;;;5.17;2.07;;;;;;;5.09;100.00;98661.56;4990708;28;20022;-82
2021/03/13 05:40:56;;;;;;;6.97;2.83;;;;;;;5.04;100.00;98652.97;4993393;28;20026;-83
2021/03/13 05:43:22;;;;;;;6.00;2.77;;;;;;;5.06;100.00;98638.28;4987978;28;20030;-82
2021/03/13 05:45:48;;;;;;;7.53;2.97;;;;;;;5.03;100.00;98633.13;4992854;28;20633;-82
2021/03/13 05:48:14;;;;;;;4.93;2.53;;;;;;;5.06;100.00;98629.66;4993925;28;20097;-82
2021/03/13 05:50:41;;;;;;;6.37;2.20;;;;;;;5.01;100.00;98619.34;4987150;28;20025;-82
2021/03/13 05:53:10;;;;;;;6.50;2.53;;;;;;;4.98;100.00;98609.03;4991507;28;20284;-83
2021/03/13 05:55:35;;;;;;;5.50;2.73;;;;;;;4.98;100.00;98606.44;4994743;28;20638;-81
2021/03/13 05:58:01;;;;;;;6.73;3.00;;;;;;;4.95;100.00;98596.06;4988384;28;20362;-83
2021/03/13 06:00:27;;;;;;;6.20;2.77;;;;;;;4.99;100.00;98585.69;4992817;28;20036;-83
2021/03/13 06:02:55;;;;;;;6.30;3.47;;;;;;;4.99;100.00;98575.34;4985974;28;20688;-82
2021/03/13 06:05:21;;;;;;;8.07;3.17;;;;;;;5.00;100.00;98560.66;4991818;28;20042;-83
2021/03/13 06:07:47;;;;;;;7.07;3.20;;;;;;;4.98;100.00;98552.91;4992723;28;20703;-83
2021/03/13 06:10:15;;;;;;;5.70;2.40;;;;;;;5.06;100.00;98545.03;4991823;28;20018;-82
2021/03/13 06:12:41;;;;;;;8.00;3.13;;;;;;;4.94;100.00;98534.81;4989775;28;20045;-83
2021/03/13 06:15:08;;;;;;;6.90;3.30;;;;;;;4.97;100.00;98519.25;4986618;28;20297;-83
2021/03/13 06:17:59;;;;;;;4.40;2.03;;;;;;;5.04;100.00;98520.88;4992939;28;20261;-82
2021/03/13 06:20:34;;;;;;;5.00;2.33;;;;;;;5.02;100.00;98511.44;4998655;28;20276;-82
2021/03/13 06:23:19;;;;;;;5.47;2.13;;;;;;;5.05;100.00;98507.06;4989463;28;20258;-83
2021/03/13 06:25:46;;;;;;;4.83;2.20;;;;;;;5.07;100.00;98500.13;4994160;28;20281;-81
2021/03/13 06:28:22;;;;;;;6.13;2.00;;;;;;;5.07;100.00;98488.91;4993882;28;20280;-82
2021/03/13 06:30:49;;;;;;;6.17;2.33;;;;;;;5.10;100.00;98478.53;4995378;28;20265;-83
2021/03/13 06:33:34;;;;;;;5.60;2.60;;;;;;;5.12;100.00;98462.09;4997516;28;20335;-83
2021/03/13 06:36:03;;;;;;;6.30;2.53;;;;;;;5.12;100.00;98467.28;4996081;28;20281;-82
2021/03/13 06:38:30;;;;;;;3.20;1.50;;;;;;;5.18;100.00;98456.81;4994933;28;20270;-80
2021/03/13 06:40:58;;;;;;;5.43;2.10;;;;;;;5.23;100.00;98460.22;4994677;28;20627;-82
2021/03/13 06:43:31;;;;;;;4.93;2.40;;;;;;;5.20;100.00;98449.03;4989698;28;20280;-82
2021/03/13 06:45:56;;;;;;;;;;;;;;;5.22;100.00;98444.69;4992578;28;20281;-81
2021/03/13 06:48:31;;;;;;;5.80;2.30;;;;;;;5.27;100.00;98430.78;4991068;28;20377;-83
2021/03/13 06:51:38;;;;;;;4.27;1.97;;;;;;;5.21;100.00;98423.13;4990301;28;20064;-81
2021/03/13 06:54:15;;;;;;;4.53;1.97;;;;;;;5.24;100.00;98404.06;4921782;29;20283;-83
2021/03/13 06:56:44;;;;;;;3.83;1.80;;;;;;;5.26;100.00;98408.34;4980649;28;20285;-82
2021/03/13 06:59:30;;;;;;;4.30;1.87;;;;;;;5.29;100.00;98391.91;4994338;28;20269;-83
2021/03/13 07:02:06;;;;;;;3.43;1.50;;;;;;;5.27;100.00;98391.94;4995839;28;20269;-82
2021/03/13 07:04:34;;;;;;;4.13;1.73;;;;;;;5.29;100.00;98384.13;4997550;28;20376;-82
2021/03/13 07:07:00;;;;;;;4.03;1.73;;;;;;;5.28;100.00;98380.69;4992081;28;20808;-81
2021/03/13 07:09:43;;;;;;;3.27;1.60;;;;;;;5.35;100.00;98360.72;4991311;28;20280;-82
2021/03/13 07:12:35;;;;;;;3.35;1.48;;;;;;;5.37;100.00;98360.69;4994921;28;20262;-81
2021/03/13 07:15:23;;;;;;;3.37;1.70;;;;;;;5.43;100.00;98360.59;4991491;28;20019;-82
2021/03/13 07:17:59;;;;;;;3.23;1.70;;;;;;;5.44;100.00;98364.91;5000525;28;20260;-83
2021/03/13 07:20:28;;;;;;;3.97;1.60;;;;;;;5.52;100.00;98353.53;4992179;28;20297;-82
2021/03/13 07:22:56;;;;;;;3.40;1.60;;;;;;;5.48;100.00;98361.41;4994796;28;20296;-82
2021/03/13 07:25:23;;;;;;;6.37;1.73;;;;;;;5.52;100.00;98342.31;4992722;28;20262;-81
2021/03/13 07:27:58;;;;;;;2.70;1.30;;;;;;;5.58;100.00;98342.22;4993437;28;20318;-82
2021/03/13 07:30:25;;;;;;;2.80;1.33;;;;;;;5.56;100.00;98331.84;4991772;28;20278;-83
2021/03/13 07:32:56;;;;;;;4.10;1.27;;;;;;;5.60;100.00;98330.09;4993978;28;20599;-83
2021/03/13 07:35:22;;;;;;;2.20;1.30;;;;;;;5.67;100.00;98326.50;4988617;28;20285;-82
2021/03/13 07:37:53;;;;;;;2.17;1.10;;;;;;;5.76;100.00;98312.53;4997758;28;20273;-82
2021/03/13 07:40:20;;;;;;;3.33;1.40;;;;;;;5.78;100.00;98311.59;4986181;28;20266;-82
2021/03/13 07:42:46;;;;;;;1.93;1.00;;;;;;;5.84;100.00;98315.84;4987576;28;20257;-82
2021/03/13 07:45:13;;;;;;;2.97;1.13;;;;;;;5.89;100.00;98299.28;4996155;28;20733;-82
2021/03/13 07:47:42;;;;;;;2.93;1.20;;;;;;;5.95;100.00;98294.94;4994763;28;20492;-82
2021/03/13 07:50:14;;;;;;;2.20;1.10;;;;;;;6.01;100.00;98279.22;4993725;28;20258;-82
2021/03/13 07:52:40;;;;;;;1.90;1.00;;;;;;;6.05;100.00;98281.72;4995016;28;20325;-83
2021/03/13 07:55:12;;;;;;;2.17;1.13;;;;;;;6.03;100.00;98261.91;4989363;28;20289;-82
2021/03/13 07:57:41;;;;;;;2.40;0.90;;;;;;;6.10;100.00;98276.47;4989867;28;20089;-83
2021/03/13 08:00:07;;;;;;;1.50;0.90;;;;;;;6.19;100.00;98258.13;4995664;28;20026;-80
2021/03/13 08:02:32;;;;;;;3.57;1.50;;;;;;;6.34;100.00;98257.81;4994174;28;20262;-81
2021/03/13 08:05:03;;;;;;;2.27;1.10;;;;;;;6.44;100.00;98280.09;4993948;28;20582;-81
2021/03/13 08:07:48;;;;;;;1.37;0.93;;;;;;;6.38;100.00;98264.63;4995068;28;20038;-81
2021/03/13 08:10:47;;;;;;;2.33;1.00;;;;;;;6.44;100.00;98293.06;4995720;28;20381;-80
2021/03/13 08:13:27;;;;;;;1.73;0.90;;;;;;;6.42;100.00;98291.38;4992154;28;20030;-80
2021/03/13 08:16:03;;;;;;;2.47;1.03;;;;;;;6.55;100.00;98422.66;4998681;28;20336;-81
2021/03/13 08:18:52;;;;;;;0.50;0.47;;;;;;;3.69;100.00;98411.84;4991056;28;20026;-79
2021/03/13 08:21:18;;;;;;;1.07;0.70;;;;;;;3.52;100.00;98420.63;4993960;28;20282;-81
2021/03/13 08:23:49;;;;;;;2.27;1.00;;;;;;;3.73;100.00;98404.06;4988755;28;20304;-83
2021/03/13 08:26:15;;;;;;;2.17;0.90;;;;;;;4.11;100.00;98389.91;4981159;28;20019;-80
2021/03/13 08:28:47;;;;;;;4.43;0.80;;;;;;;4.42;100.00;98377.53;5000135;28;20278;-81
2021/03/13 08:31:24;;;;;;;1.10;0.70;;;;;;;4.75;100.00;98362.47;4992910;28;20643;-81
2021/03/13 08:33:53;;;;;;;4.30;0.80;;;;;;;4.81;100.00;98350.28;4987196;28;20031;-81
2021/03/13 08:36:20;;;;;;;2.90;0.90;;;;;;;4.96;100.00;98344.03;4990775;28;20317;-82
2021/03/13 08:38:57;;;;;;;1.10;0.70;;;;;;;5.20;100.00;98328.13;4988554;28;20242;-82
2021/03/13 08:41:44;;;;;;;1.73;0.70;;;;;;;5.43;100.00;98338.13;4992521;28;20261;-82
2021/03/13 08:44:11;;;;;;;1.27;0.60;;;;;;;5.54;100.00;98317.22;4993505;28;20808;-81
2021/03/13 08:46:53;;;;;;;3.43;1.13;;;;;;;5.72;100.00;98324.69;4993247;28;20333;-83
2021/03/13 08:49:24;;;;;;;1.88;0.85;;;;;;;5.93;100.00;98332.97;4984837;28;20282;-82
2021/03/13 08:52:20;;;;;;;3.23;0.70;;;;;;;6.12;100.00;98335.22;4992022;28;20499;-83
2021/03/13 08:54:48;;;;;;;2.90;0.60;;;;;;;6.24;100.00;98330.69;4992012;28;20653;-83
2021/03/13 08:57:25;;;;;;;1.13;0.80;;;;;;;6.42;100.00;98344.16;4991236;28;20038;-83
2021/03/13 08:59:53;;;;;;;2.23;0.93;;;;;;;6.58;100.00;98338.66;4991731;28;20033;-83
2021/03/13 09:02:28;;;;;;;4.03;0.70;;;;;;;6.63;100.00;98336.78;4993765;28;20438;-83
2021/03/13 09:05:00;;;;;;;1.60;0.73;;;;;;;6.66;100.00;98341.91;4993725;28;20049;-83
2021/03/13 09:07:26;;;;;;;1.07;0.80;;;;;;;6.80;100.00;98333.84;4988178;28;20027;-82
2021/03/13 09:09:56;;;;;;;4.70;0.50;;;;;;;6.74;100.00;98329.63;4989955;28;20026;-83
2021/03/13 09:12:23;;;;;;;2.20;0.70;;;;;;;6.70;100.00;98317.63;4984113;28;20054;-82
2021/03/13 09:14:54;;;;;;;2.60;0.80;;;;;;;6.58;100.00;98338.66;4992085;28;20026;-83
2021/03/13 09:17:23;;;;;;;1.33;0.60;;;;;;;6.68;100.00;98346.22;4989357;28;20030;-83
2021/03/13 09:19:50;;;;;;;7.27;0.80;;;;;;;6.68;100.00;98334.97;4989554;28;20034;-83
2021/03/13 09:22:17;;;;;;;2.70;0.80;;;;;;;7.21;100.00;98335.50;4987945;28;20026;-83
2021/03/13 09:24:44;;;;;;;2.37;0.60;;;;;;;7.32;99.88;98333.53;4995513;28;20022;-83
2021/03/13 09:27:10;;;;;;;4.57;0.70;;;;;;;7.33;100.00;98335.22;4994033;28;20033;-83
2021/03/13 09:29:38;;;;;;;2.90;0.80;;;;;;;7.48;100.00;98328.78;4992972;28;20026;-83
2021/03/13 09:32:04;;;;;;;2.60;0.80;;;;;;;7.44;98.61;98322.81;4996556;28;20488;-83
2021/03/13 09:34:39;;;;;;;1.90;0.80;;;;;;;7.37;99.25;98317.81;4991375;28;20036;-82
2021/03/13 09:37:15;;;;;;;2.70;0.87;;;;;;;7.61;98.02;98336.25;4989002;28;20484;-83
2021/03/13 09:39:59;;;;;;;2.10;0.70;;;;;;;7.87;96.32;98333.00;4994566;28;20052;-83
2021/03/13 09:42:26;;;;;;;5.40;1.10;;;;;;;8.04;95.44;98326.50;4986380;28;20453;-82
2021/03/13 09:44:52;;;;;;;4.93;1.00;;;;;;;8.13;96.19;98334.94;4999047;28;20553;-83
2021/03/13 09:47:22;;;;;;;4.53;1.00;;;;;;;8.00;94.32;98301.47;4990686;28;20039;-83
2021/03/13 09:49:51;;;;;;;2.47;0.77;;;;;;;7.93;95.97;98311.16;4991944;28;20022;-83
2021/03/13 09:52:23;;;;;;;3.13;1.07;;;;;;;8.22;95.53;98307.75;4994995;28;20463;-83
2021/03/13 09:54:48;;;;;;;4.20;0.93;;;;;;;8.31;93.61;98314.47;4988780;28;20038;-83
2021/03/13 09:57:14;;;;;;;2.03;0.70;;;;;;;8.39;90.89;98317.75;4992726;28;20030;-82
2021/03/13 09:59:41;;;;;;;1.30;0.70;;;;;;;8.25;91.70;98312.06;4994199;28;20018;-83
2021/03/13 10:02:08;;;;;;;4.80;0.80;;;;;;;8.43;90.64;98316.75;4992069;28;20018;-83
2021/03/13 10:04:33;;;;;;;1.13;0.70;;;;;;;8.58;91.48;98331.94;4986265;28;20093;-83
2021/03/13 10:07:00;;;;;;;3.97;0.90;;;;;;;8.58;88.66;98331.94;4990571;28;20054;-83
2021/03/13 10:09:25;;;;;;;4.70;1.23;;;;;;;8.62;89.44;98302.31;4986058;28;20034;-83
2021/03/13 10:11:51;;;;;;;4.20;1.20;;;;;;;8.64;89.96;98308.34;4992529;28;20045;-83
2021/03/13 10:14:22;;;;;;;2.47;0.93;;;;;;;8.49;84.07;98293.16;4994525;28;20108;-82
2021/03/13 10:16:57;;;;;;;5.30;0.90;;;;;;;8.52;85.87;98303.50;4988666;28;20054;-82
2021/03/13 10:19:53;;;;;;;3.07;0.97;;;;;;;8.69;84.44;98298.63;4994618;28;20053;-82
2021/03/13 10:22:21;;;;;;;6.73;1.17;;;;;;;8.77;85.57;98307.06;4991896;28;20050;-82
2021/03/13 10:24:49;;;;;;;3.37;0.90;;;;;;;9.01;84.18;98289.84;4995316;28;20026;-83
2021/03/13 10:27:20;;;;;;;2.63;0.70;;;;;;;9.13;80.48;98287.75;4996172;28;20109;-82
2021/03/13 10:30:06;;;;;;;9.30;1.67;;;;;;;9.28;78.00;98290.69;4992960;28;20029;-83
2021/03/13 10:32:33;;;;;;;4.07;1.73;;;;;;;8.84;75.81;98275.59;4995644;28;20038;-83
2021/03/13 10:35:11;;;;;;;2.30;0.60;;;;;;;8.97;75.74;98292.59;5000552;28;20093;-82
2021/03/13 10:37:48;;;;;;;2.53;0.60;;;;;;;9.19;77.56;98257.09;4999871;28;20041;-82
2021/03/13 10:40:41;;;;;;;4.87;1.00;;;;;;;9.17;77.86;98289.34;5011425;28;20045;-82
2021/03/13 10:43:15;;;;;;;8.33;1.37;;;;;;;9.01;78.17;98273.34;4988883;28;20027;-83
2021/03/13 10:45:44;;;;;;;8.03;1.37;;;;;;;8.83;78.49;98279.97;5003549;28;20034;-82
2021/03/13 10:48:10;;;;;;;7.47;1.10;;;;;;;8.88;81.11;98293.72;4999635;28;20040;-82
2021/03/13 10:50:38;;;;;;;5.40;1.40;;;;;;;8.69;80.29;98288.19;5006665;28;20386;-83
2021/03/13 10:53:39;;;;;;;3.27;0.80;;;;;;;8.38;83.15;98297.81;4999577;28;20114;-82
2021/03/13 10:56:10;;;;;;;3.83;1.20;;;;;;;8.26;84.75;98292.94;5005815;28;20030;-83
2021/03/13 10:58:52;;;;;;;7.13;1.40;;;;;;;8.32;85.53;98277.13;5000007;28;20454;-81
2021/03/13 11:01:19;;;;;;;3.03;1.15;;;;;;;8.39;85.87;98273.50;4999823;28;20040;-82
2021/03/13 11:03:47;;;;;;;3.70;1.23;;;;;;;8.27;84.54;98289.44;5000209;28;20391;-82
2021/03/13 11:06:14;;;;;;;3.60;1.30;;;;;;;8.28;86.76;98291.13;5008514;28;20064;-82
2021/03/13 11:08:40;;;;;;;3.60;0.83;;;;;;;8.15;87.26;98275.88;5001009;28;20026;-81
2021/03/13 11:11:06;;;;;;;3.37;0.80;;;;;;;8.14;89.76;98279.38;5000853;28;20028;-82
2021/03/13 11:13:31;;;;;;;0.60;0.50;;;;;;;8.22;87.32;98273.94;5000347;28;20037;-82
2021/03/13 11:15:57;;;;;;;2.80;1.03;;;;;;;8.31;86.47;98280.63;4997558;28;20022;-81
2021/03/13 11:18:23;;;;;;;2.50;0.87;;;;;;;8.32;87.32;98279.72;4998964;28;20425;-82
2021/03/13 11:20:49;;;;;;;4.80;1.30;;;;;;;8.41;83.59;98271.69;5000759;28;20035;-81
2021/03/13 11:23:16;;;;;;;6.67;1.17;;;;;;;8.66;81.50;98272.66;5000265;28;20097;-82
2021/03/13 11:25:43;;;;;;;6.00;0.77;;;;;;;8.91;79.36;98261.50;4999864;28;20045;-81
2021/03/13 11:28:09;;;;;;;8.40;1.00;;;;;;;8.91;79.27;98245.88;4999949;28;20022;-82
2021/03/13 11:30:35;;;;;;;4.77;0.93;;;;;;;9.34;80.30;98277.47;4999715;28;20125;-82
2021/03/13 11:33:01;;;;;;;3.10;0.90;;;;;;;9.23;81.10;98269.16;5001460;28;20553;-82
2021/03/13 11:35:27;;;;;;;5.10;1.27;;;;;;;8.84;84.05;98286.88;5003837;28;20026;-82
2021/03/13 11:37:52;;;;;;;3.30;0.87;;;;;;;8.29;84.41;98303.25;5007989;28;20025;-81
2021/03/13 11:40:20;;;;;;;4.60;0.80;;;;;;;7.82;89.49;98334.00;4999364;28;20042;-81
2021/03/13 11:42:46;;;;;;;2.50;0.60;;;;;;;7.16;93.90;98332.19;5012313;28;20470;-80
2021/03/13 11:45:13;;;;;;;2.30;0.83;;;;;;;7.29;92.31;98310.22;5001105;28;20027;-80